Time;durP1;ratioP1;P1;durP2;ratioP2;P2;SDS_P1;SDS_P2;PMS_P1;PMS_P2;Temp;Humidity;BMP_temperature;BMP_pressure;BME280_temperature;BME280_humidity;BME280_pressure;Samples;Min_cycle;Max_cycle;Signal;HPM_P1;HPM_P2
2022/11/29 06:52:42;;;;;;;23.35;10.58;;;;;;;1.01;100.00;101411.89;1735422;81;21493;-46
2022/11/29 06:55:24;;;;;;;22.07;10.58;;;;;;;1.03;100.00;101419.30;1629878;85;21072;-39
2022/11/29 06:58:10;;;;;;;14.35;9.38;;;;;;;1.09;100.00;101416.17;1621380;86;21617;-47
2022/11/29 07:00:54;;;;;;;14.43;8.88;;;;;;;1.12;100.00;101421.52;1623777;86;21062;-38
2022/11/29 07:03:33;;;;;;;20.30;9.20;;;;;;;1.10;100.00;101417.94;1595799;87;21627;-46
2022/11/29 07:06:03;;;;;;;17.15;9.13;;;;;;;1.11;100.00;101414.59;1625416;85;21162;-46
2022/11/29 07:08:31;;;;;;;17.80;9.20;;;;;;;1.11;100.00;101406.45;1623759;86;21068;-39
2022/11/29 07:10:59;;;;;;;12.58;7.95;;;;;;;1.12;100.00;101403.06;1629877;86;21035;-45
2022/11/29 07:13:28;;;;;;;16.85;9.18;;;;;;;1.16;100.00;101402.81;1621961;86;21144;-37
2022/11/29 07:16:28;;;;;;;14.33;7.80;;;;;;;1.17;100.00;101406.79;1599086;88;21101;-45
2022/11/29 07:19:29;;;;;;;15.23;8.63;;;;;;;1.21;100.00;101411.69;1622909;85;21048;-47
2022/11/29 07:22:19;;;;;;;16.02;8.43;;;;;;;1.20;100.00;101407.34;1613387;86;22035;-38
2022/11/29 07:25:18;;;;;;;10.50;7.33;;;;;;;1.19;100.00;101416.78;1603968;86;21099;-38
2022/11/29 07:28:17;;;;;;;11.88;6.42;;;;;;;1.18;100.00;101423.14;1625275;85;21134;-38
2022/11/29 07:31:07;;;;;;;11.85;7.28;;;;;;;1.16;100.00;101425.64;1603374;87;22665;-39
2022/11/29 07:33:57;;;;;;;15.50;6.90;;;;;;;1.19;100.00;101423.22;1691693;83;21164;-39
2022/11/29 07:37:10;;;;;;;9.83;6.50;;;;;;;1.24;100.00;101422.19;1690784;82;21012;-38
2022/11/29 07:40:13;;;;;;;9.90;6.15;;;;;;;1.28;100.00;101428.02;1672499;83;21361;-37
2022/11/29 07:43:06;;;;;;;;;;;;;;;1.28;100.00;101419.87;1664009;83;21165;-46
2022/11/29 07:45:46;;;;;;;12.43;6.78;;;;;;;1.25;100.00;101425.25;1660893;83;20134;-47
2022/11/29 07:48:16;;;;;;;11.68;6.08;;;;;;;1.24;100.00;101423.48;1656940;84;21665;-52
2022/11/29 07:50:43;;;;;;;12.40;6.78;;;;;;;1.24;100.00;101420.50;1676540;84;21423;-46
2022/11/29 07:53:18;;;;;;;8.20;5.25;;;;;;;1.28;100.00;101412.14;1680175;83;21045;-47
2022/11/29 07:55:45;;;;;;;11.05;6.37;;;;;;;1.30;100.00;101413.50;1675212;83;21046;-45
2022/11/29 07:58:13;;;;;;;8.93;6.05;;;;;;;1.28;100.00;101412.14;1668327;83;21107;-45
2022/11/29 08:00:41;;;;;;;10.93;6.03;;;;;;;1.29;100.00;101413.91;1678336;83;21333;-46
2022/11/29 10:23:57;;;;;;;20.88;9.28;;;;;;;1.24;100.00;101322.93;1805040;79;25998;-38
2022/11/29 10:26:25;;;;;;;13.80;8.23;;;;;;;1.21;100.00;101325.33;1768531;80;21747;-41
2022/11/29 10:28:54;;;;;;;10.63;7.30;;;;;;;1.22;100.00;101322.86;1749589;80;21013;-41
2022/11/29 10:31:29;;;;;;;12.28;8.75;;;;;;;1.23;100.00;101327.20;1749470;80;21069;-47
2022/11/29 10:34:05;;;;;;;14.90;8.30;;;;;;;1.23;100.00;101321.16;1746456;80;21433;-47
2022/11/29 10:36:48;;;;;;;13.55;8.50;;;;;;;1.24;100.00;101314.79;1706573;81;21082;-48
2022/11/29 10:39:47;;;;;;;15.03;8.63;;;;;;;1.26;100.00;101311.00;1661537;84;21301;-39
2022/11/29 10:45:04;;;;;;;12.10;7.90;;;;;;;1.30;100.00;101297.47;1684312;83;21832;-38
2022/11/29 10:47:31;;;;;;;12.00;8.03;;;;;;;1.32;100.00;101290.69;1680103;83;21124;-39
2022/11/29 10:49:57;;;;;;;14.83;8.05;;;;;;;1.33;100.00;101290.80;1688501;84;21065;-39
2022/11/29 10:52:24;;;;;;;13.90;8.18;;;;;;;1.36;100.00;101285.31;1706537;82;21375;-47
2022/11/29 10:54:55;;;;;;;13.03;6.83;;;;;;;1.36;100.00;101288.77;1683458;83;21448;-47
2022/11/29 10:57:22;;;;;;;15.30;8.30;;;;;;;1.38;100.00;101287.14;1694901;82;21060;-47
2022/11/29 11:00:05;;;;;;;12.85;7.62;;;;;;;1.41;100.00;101291.59;1687781;83;20997;-49
2022/11/29 11:03:08;;;;;;;13.03;7.45;;;;;;;1.46;100.00;101295.30;1686962;83;21634;-49
2022/11/29 11:06:44;;;;;;;12.80;8.10;;;;;;;1.45;100.00;101295.72;1688639;82;21517;-40
2022/11/29 11:09:49;;;;;;;14.38;6.90;;;;;;;1.42;100.00;101299.41;1709159;82;21631;-47
2022/11/29 11:12:32;;;;;;;15.05;7.17;;;;;;;1.42;100.00;101310.12;1684910;83;21655;-48
2022/11/29 11:15:30;;;;;;;13.03;7.10;;;;;;;1.43;100.00;101306.73;1687437;84;21370;-49
2022/11/29 11:18:10;;;;;;;12.13;7.17;;;;;;;1.42;100.00;101307.55;1695264;82;21141;-52
2022/11/29 11:20:43;;;;;;;15.80;7.17;;;;;;;1.43;100.00;101305.05;1689598;82;21005;-38
2022/11/29 11:23:39;;;;;;;11.45;7.05;;;;;;;1.45;100.00;101303.82;1637846;84;21441;-39
2022/11/29 11:27:01;;;;;;;11.93;7.47;;;;;;;1.46;100.00;101305.22;1669920;84;21548;-40
2022/11/29 11:30:10;;;;;;;14.83;7.00;;;;;;;1.48;100.00;101302.71;1661163;85;21713;-48
2022/11/29 11:33:25;;;;;;;14.07;7.00;;;;;;;1.47;100.00;101306.10;1662343;84;21669;-48
2022/11/29 11:36:34;;;;;;;13.08;7.62;;;;;;;1.46;100.00;101309.49;1673525;84;21047;-48
2022/11/29 11:39:37;;;;;;;16.90;7.35;;;;;;;1.46;100.00;101314.65;1663737;84;21056;-49
2022/11/29 11:45:31;;;;;;;14.60;7.08;;;;;;;1.46;100.00;101323.67;1568306;89;21122;-48
2022/11/29 11:48:14;;;;;;;9.83;6.05;;;;;;;1.45;100.00;101318.92;1606038;87;21607;-39
2022/11/29 11:50:57;;;;;;;12.55;7.00;;;;;;;1.47;100.00;101320.28;1600656;87;21012;-39
2022/11/29 11:53:35;;;;;;;12.65;6.55;;;;;;;1.45;100.00;101312.48;1585750;87;21083;-47
2022/11/29 11:56:18;;;;;;;20.92;7.80;;;;;;;1.43;100.00;101311.48;1583428;87;21066;-39
2022/11/29 11:58:54;;;;;;;13.80;6.92;;;;;;;1.40;100.00;101311.34;1553300;89;21185;-38
2022/11/29 12:01:37;;;;;;;16.17;7.78;;;;;;;1.39;100.00;101311.23;1567585;89;21614;-40
